This is the latest recevied weather packets stored in our database for station/object N3WAX-1. If no packets are shown the sender has not sent any weather packets the latest 10 day(s).
| Time | Temp. | Humidity | Pressure | Rain* | Wind** | Luminosity | Snow |
|---|---|---|---|---|---|---|---|
| 1778164630 | 12.78° C | 70% | 1012.3 hPa | 0 mm | - | 494 W/m² | - |
| 1778164188 | 12.78° C | 69% | 1012.5 hPa | 0 mm | - | 446 W/m² | - |
| 1778164031 | 13.33° C | 69% | 1012.3 hPa | 0 mm | - | 497 W/m² | - |
| 1778163588 | 13.33° C | 72% | 1012.4 hPa | 0 mm | - | 930 W/m² | - |
| 1778160281 | 11.67° C | 82% | 1012.6 hPa | 0 mm | - | 394 W/m² | - |
| 1778157721 | 10.56° C | 87% | 1012.7 hPa | 0 mm | - | 158 W/m² | - |
| 1778156676 | 10° C | 91% | 1012.6 hPa | 0 mm | - | 144 W/m² | - |
| 1778156077 | 10.56° C | 93% | 1012.4 hPa | 0 mm | - | 88 W/m² | - |
| 1778155477 | 10.56° C | 94% | 1012.3 hPa | 0 mm | - | 69 W/m² | - |
| 1778155177 | 10.56° C | 94% | 1012.4 hPa | 0 mm | - | 72 W/m² | - |
| 1778153977 | 10° C | 96% | 1012 hPa | 0 mm | - | 65 W/m² | - |
| 1778153217 | 10° C | 96% | 1011.9 hPa | 0 mm | - | 39 W/m² | - |
| 1778151093 | 10° C | 96% | 1011.7 hPa | 0 mm | - | 21 W/m² | - |
| 1778146144 | 10° C | 96% | 1011 hPa | 0 mm | - | 0 W/m² | - |
| 1778144645 | 10° C | 96% | 1010.8 hPa | 0 mm | - | 0 W/m² | - |
| 1778142535 | 10° C | 96% | 1010.6 hPa | 0.51 mm | - | 0 W/m² | - |
| 1778139969 | 10° C | 95% | 1010.4 hPa | 1.02 mm | - | 0 W/m² | - |
| 1778139078 | 10° C | 94% | 1010.8 hPa | 1.02 mm | - | 0 W/m² | - |
| 1778138619 | 10° C | 94% | 1010.6 hPa | 1.02 mm | - | 0 W/m² | - |
| 1778137696 | 10° C | 94% | 1010.8 hPa | 2.29 mm | - | 0 W/m² | - |
| 1778136468 | 10.56° C | 94% | 1011.4 hPa | 2.29 mm | - | 0 W/m² | - |
| 1778134625 | 11.11° C | 94% | 1010.8 hPa | 2.79 mm | - | 0 W/m² | - |
| 1778133702 | 11.11° C | 94% | 1010.9 hPa | 1.78 mm | - | 0 W/m² | - |
| 1778133228 | 11.67° C | 93% | 1010.8 hPa | 2.03 mm | - | 0 W/m² | - |
| 1778132611 | 11.67° C | 93% | 1011 hPa | 2.79 mm | - | 0 W/m² | - |
* Rain latest hour (hover to see other rain measurements)
** Current wind speed in m/s (hover to see current wind gust speed)